createdAt,value
2023-02-16T00:01:22.640Z,71.40
2023-02-16T00:03:53.183Z,71.30
2023-02-16T00:06:22.500Z,71.50
2023-02-16T00:08:53.004Z,71.80
2023-02-16T00:11:43.569Z,71.60
2023-02-16T00:14:15.685Z,72.10
2023-02-16T00:16:44.853Z,71.90
2023-02-16T00:19:18.933Z,71.90
2023-02-16T00:21:47.953Z,72.20
2023-02-16T00:24:17.660Z,73.10
2023-02-16T00:26:47.492Z,72.20
2023-02-16T00:29:22.047Z,71.90
2023-02-16T00:31:51.384Z,72.10
2023-02-16T00:34:30.657Z,72.30
2023-02-16T00:37:01.296Z,72.20
2023-02-16T00:39:30.648Z,72.00
2023-02-16T00:42:03.956Z,71.90
2023-02-16T00:44:37.100Z,71.80
2023-02-16T00:47:25.771Z,72.40
2023-02-16T00:49:55.901Z,72.60
2023-02-16T00:52:32.132Z,72.30
2023-02-16T00:55:02.664Z,72.20
2023-02-16T00:57:35.100Z,72.10
2023-02-16T01:00:08.826Z,72.10
2023-02-16T01:02:37.853Z,72.10
2023-02-16T01:05:07.534Z,72.00
2023-02-16T01:07:54.224Z,72.00
2023-02-16T01:10:41.709Z,71.80
2023-02-16T01:13:15.834Z,71.70
2023-02-16T01:15:47.043Z,71.70
2023-02-16T01:18:18.670Z,71.70
2023-02-16T01:20:50.158Z,71.60
2023-02-16T01:23:19.334Z,72.00
2023-02-16T01:25:48.501Z,71.30
2023-02-16T01:28:22.249Z,71.40
2023-02-16T01:30:53.707Z,71.50
2023-02-16T01:33:23.025Z,71.40
2023-02-16T01:35:53.488Z,71.50
2023-02-16T01:38:25.350Z,71.60
2023-02-16T01:41:03.499Z,71.70
2023-02-16T01:43:47.648Z,72.00
2023-02-16T01:46:22.559Z,72.00
2023-02-16T01:48:51.831Z,71.80
2023-02-16T01:51:25.251Z,71.70
2023-02-16T01:53:58.082Z,71.80
2023-02-16T01:56:41.036Z,71.80
2023-02-16T01:59:17.129Z,72.00
2023-02-16T02:01:54.650Z,72.30
2023-02-16T02:04:53.260Z,72.10
2023-02-16T02:07:28.790Z,72.10
2023-02-16T02:10:03.985Z,72.10
2023-02-16T02:12:40.859Z,72.00
2023-02-16T02:15:11.551Z,71.70
2023-02-16T02:17:41.903Z,71.70
2023-02-16T02:20:17.257Z,71.50
2023-02-16T02:23:29.866Z,71.70
2023-02-16T02:26:28.818Z,71.90
2023-02-16T02:29:08.998Z,71.70
2023-02-16T02:31:49.887Z,71.70
2023-02-16T02:34:29.051Z,71.80
2023-02-16T02:37:08.190Z,72.00
2023-02-16T02:39:46.575Z,71.90
2023-02-16T02:42:23.128Z,71.90
2023-02-16T02:45:02.879Z,71.90
2023-02-16T02:47:39.605Z,71.80
2023-02-16T02:51:07.477Z,71.60
2023-02-16T02:53:42.328Z,71.40
2023-02-16T02:56:31.392Z,71.30
2023-02-16T02:59:23.410Z,71.30
2023-02-16T03:01:58.735Z,71.50
2023-02-16T03:04:31.422Z,71.80
2023-02-16T03:07:02.868Z,71.90
2023-02-16T03:09:32.029Z,72.30
2023-02-16T03:12:19.349Z,72.30
2023-02-16T03:14:52.136Z,72.10
2023-02-16T03:17:44.279Z,71.90
2023-02-16T03:20:34.406Z,71.90
2023-02-16T03:23:23.967Z,72.00
2023-02-16T03:26:11.326Z,72.00
2023-02-16T03:29:01.892Z,71.90
2023-02-16T03:31:34.677Z,71.90
2023-02-16T03:34:05.285Z,71.80
2023-02-16T03:36:37.964Z,72.00
2023-02-16T03:39:08.229Z,72.10
2023-02-16T03:41:41.625Z,72.00
2023-02-16T03:44:11.038Z,72.10
2023-02-16T03:46:40.179Z,72.20
2023-02-16T03:49:10.474Z,72.20
2023-02-16T03:51:39.559Z,72.20
2023-02-16T03:54:08.547Z,72.30
2023-02-16T03:56:37.696Z,72.50
2023-02-16T03:59:06.590Z,72.50
2023-02-16T04:01:35.527Z,72.50
2023-02-16T04:04:04.643Z,72.50
2023-02-16T04:06:35.058Z,72.90
2023-02-16T04:09:04.647Z,72.80
2023-02-16T04:11:51.137Z,72.50
2023-02-16T04:14:20.192Z,72.60
2023-02-16T04:16:49.499Z,72.50
2023-02-16T04:19:18.922Z,72.30
2023-02-16T04:21:49.385Z,72.10
2023-02-16T04:24:18.342Z,72.20
2023-02-16T04:26:49.500Z,72.40
2023-02-16T04:29:18.578Z,72.30
2023-02-16T04:31:48.016Z,72.30
2023-02-16T04:34:17.223Z,72.20
2023-02-16T04:36:46.185Z,72.20
2023-02-16T04:39:16.786Z,72.20
2023-02-16T04:41:45.763Z,72.20
2023-02-16T04:44:14.930Z,72.10
2023-02-16T04:46:44.020Z,72.00
2023-02-16T04:49:13.188Z,72.00
2023-02-16T04:51:42.294Z,71.90
2023-02-16T04:54:11.270Z,71.80
2023-02-16T04:56:44.414Z,71.70
2023-02-16T04:59:13.701Z,71.60
2023-02-16T05:01:43.436Z,71.40
2023-02-16T05:04:12.907Z,71.40
2023-02-16T05:06:42.305Z,71.50
2023-02-16T05:09:11.904Z,71.50
2023-02-16T05:11:59.681Z,71.70
2023-02-16T05:14:43.295Z,71.80
2023-02-16T05:17:14.468Z,71.80
2023-02-16T05:19:45.182Z,71.80
2023-02-16T05:22:15.077Z,71.90
2023-02-16T05:24:45.174Z,72.00
2023-02-16T05:27:17.080Z,72.10
2023-02-16T05:29:46.155Z,72.30
2023-02-16T05:32:15.486Z,72.20
2023-02-16T05:34:45.539Z,72.10
2023-02-16T05:37:15.974Z,72.10
2023-02-16T05:39:45.455Z,72.00
2023-02-16T05:42:15.992Z,72.30
2023-02-16T05:44:44.976Z,71.90
2023-02-16T05:47:13.933Z,71.90
2023-02-16T05:49:42.900Z,71.80
2023-02-16T05:52:11.657Z,71.80
2023-02-16T05:54:40.587Z,71.70
2023-02-16T05:57:11.278Z,71.80
2023-02-16T05:59:41.690Z,72.00
2023-02-16T06:02:10.681Z,72.30
2023-02-16T06:04:40.398Z,72.50
2023-02-16T06:07:09.828Z,72.60
2023-02-16T06:09:38.909Z,72.70
2023-02-16T06:12:08.272Z,72.60
2023-02-16T06:14:37.333Z,72.60
2023-02-16T06:17:07.825Z,72.40
2023-02-16T06:19:37.121Z,73.10
2023-02-16T06:22:06.191Z,72.20
2023-02-16T06:24:35.378Z,72.10
2023-02-16T06:27:04.430Z,72.20
2023-02-16T06:29:33.247Z,72.20
2023-02-16T06:32:02.288Z,71.90
2023-02-16T06:34:32.702Z,72.10
2023-02-16T06:37:01.657Z,72.10
2023-02-16T06:39:30.631Z,72.10
2023-02-16T06:41:59.540Z,72.00
2023-02-16T06:44:28.680Z,71.80
2023-02-16T06:46:58.188Z,71.90
2023-02-16T06:49:27.873Z,72.30
2023-02-16T06:51:58.510Z,72.40
2023-02-16T06:54:27.579Z,72.40
2023-02-16T06:56:56.702Z,73.30
2023-02-16T06:59:26.562Z,72.60
2023-02-16T07:01:55.655Z,72.50
2023-02-16T07:04:24.706Z,72.30
2023-02-16T07:06:53.842Z,72.30
2023-02-16T07:09:24.249Z,72.20
2023-02-16T07:11:53.413Z,72.10
2023-02-16T07:14:22.755Z,72.10
2023-02-16T07:16:51.824Z,72.10
2023-02-16T07:19:20.881Z,72.30
2023-02-16T07:21:50.386Z,72.40
2023-02-16T07:24:19.437Z,72.50
2023-02-16T07:26:49.765Z,72.30
2023-02-16T07:29:19.311Z,72.20
2023-02-16T07:31:48.699Z,72.20
2023-02-16T07:34:20.787Z,72.30
2023-02-16T07:36:49.958Z,72.30
2023-02-16T07:39:19.524Z,72.30
2023-02-16T07:41:50.008Z,72.30
2023-02-16T07:44:20.445Z,72.20
2023-02-16T07:46:49.592Z,72.10
2023-02-16T07:49:18.973Z,71.90
2023-02-16T07:51:48.110Z,71.80
2023-02-16T07:54:17.514Z,71.90
2023-02-16T07:56:47.000Z,72.10
2023-02-16T07:59:17.706Z,72.20
2023-02-16T08:01:46.728Z,72.30
2023-02-16T08:04:15.920Z,72.50
2023-02-16T08:06:45.952Z,72.70
2023-02-16T08:09:14.976Z,72.80
2023-02-16T08:11:44.043Z,72.60
2023-02-16T08:14:13.089Z,72.80
2023-02-16T08:16:43.600Z,72.70
2023-02-16T08:19:13.998Z,72.70
2023-02-16T08:21:47.314Z,72.50
2023-02-16T08:24:16.714Z,72.00
2023-02-16T08:26:49.692Z,71.70
2023-02-16T08:29:19.887Z,71.40
2023-02-16T08:31:51.527Z,71.30
2023-02-16T08:34:22.857Z,71.30
2023-02-16T08:36:56.314Z,71.40
2023-02-16T08:39:27.315Z,71.50
2023-02-16T08:41:56.535Z,71.70
2023-02-16T08:44:26.235Z,72.00
2023-02-16T08:46:59.173Z,71.90
2023-02-16T08:49:28.743Z,71.80
2023-02-16T08:52:01.409Z,72.60
2023-02-16T08:54:33.268Z,71.60
2023-02-16T08:57:03.280Z,71.50
2023-02-16T08:59:34.121Z,71.70
2023-02-16T09:02:05.040Z,71.50
2023-02-16T09:04:33.965Z,71.50
2023-02-16T09:07:02.929Z,71.30
2023-02-16T09:09:32.150Z,71.50
2023-02-16T09:12:01.185Z,71.40
2023-02-16T09:14:30.259Z,71.30
2023-02-16T09:16:59.542Z,71.20
2023-02-16T09:19:30.170Z,70.80
2023-02-16T09:21:59.349Z,70.10
2023-02-16T09:24:28.590Z,70.30
2023-02-16T09:26:57.606Z,70.20
2023-02-16T09:29:26.606Z,70.00
2023-02-16T09:31:55.809Z,69.70
2023-02-16T09:34:26.239Z,70.00
2023-02-16T09:36:58.607Z,70.40
2023-02-16T09:39:28.709Z,70.50
2023-02-16T09:42:19.995Z,71.10
2023-02-16T09:44:55.617Z,71.20
2023-02-16T09:47:29.514Z,71.90
2023-02-16T09:49:59.523Z,70.90
2023-02-16T09:52:37.051Z,70.00
2023-02-16T09:55:09.430Z,69.00
2023-02-16T09:57:57.904Z,68.10
2023-02-16T10:00:37.260Z,67.70
2023-02-16T10:03:21.060Z,67.10
2023-02-16T10:05:57.198Z,66.00
2023-02-16T10:08:31.527Z,65.50
2023-02-16T10:11:06.492Z,65.00
2023-02-16T10:13:41.634Z,64.50
2023-02-16T10:16:15.708Z,64.70
2023-02-16T10:18:50.900Z,63.30
2023-02-16T10:21:26.062Z,61.50
2023-02-16T10:24:01.062Z,61.30
2023-02-16T10:26:35.305Z,60.90
2023-02-16T10:29:08.154Z,60.40
2023-02-16T10:31:42.732Z,59.80
2023-02-16T10:34:23.178Z,59.80
2023-02-16T10:37:19.116Z,58.80
2023-02-16T10:39:56.644Z,58.60
2023-02-16T10:42:32.971Z,58.80
2023-02-16T10:45:16.162Z,58.10
2023-02-16T10:47:47.170Z,57.80
2023-02-16T10:50:23.980Z,58.30
2023-02-16T10:52:57.209Z,57.70
2023-02-16T10:55:27.765Z,57.00
2023-02-16T10:58:00.034Z,56.70
2023-02-16T11:00:51.801Z,55.60
2023-02-16T11:03:27.222Z,54.70
2023-02-16T11:05:56.356Z,54.80
2023-02-16T11:08:29.205Z,54.30
2023-02-16T11:11:10.584Z,55.00
2023-02-16T11:13:39.811Z,54.80
2023-02-16T11:16:13.902Z,55.30
2023-02-16T11:18:46.933Z,54.30
2023-02-16T11:21:16.669Z,55.00
2023-02-16T11:23:59.684Z,54.10
2023-02-16T11:26:30.398Z,53.30
2023-02-16T11:29:18.794Z,51.40
2023-02-16T11:31:48.308Z,50.60
2023-02-16T11:34:32.276Z,50.40
2023-02-16T11:37:05.075Z,49.30
2023-02-16T11:39:38.218Z,49.20
2023-02-16T11:42:19.661Z,47.40
2023-02-16T11:44:54.064Z,47.40
2023-02-16T11:47:26.357Z,46.70
2023-02-16T11:50:19.917Z,46.60
2023-02-16T11:52:50.135Z,45.10
2023-02-16T11:55:27.270Z,45.30
2023-02-16T11:58:15.322Z,44.90
2023-02-16T12:00:53.687Z,45.30
2023-02-16T12:03:37.202Z,45.40
2023-02-16T12:06:26.597Z,45.40
2023-02-16T12:09:08.443Z,45.40
2023-02-16T12:11:48.393Z,45.00
2023-02-16T12:14:29.177Z,45.30
2023-02-16T12:17:05.095Z,45.20
2023-02-16T12:19:42.178Z,45.50
2023-02-16T12:22:23.568Z,45.80
2023-02-16T12:25:02.903Z,45.60
2023-02-16T12:27:38.289Z,46.00
2023-02-16T12:30:28.313Z,46.10
2023-02-16T12:33:13.032Z,46.10
2023-02-16T12:36:24.278Z,45.60
2023-02-16T12:39:02.139Z,45.70
2023-02-16T12:41:44.258Z,45.00
2023-02-16T12:44:18.912Z,44.20
2023-02-16T12:46:56.906Z,43.40
2023-02-16T12:49:29.506Z,43.60
2023-02-16T12:52:08.456Z,43.20
2023-02-16T12:54:41.588Z,42.70
2023-02-16T12:57:14.326Z,43.10
2023-02-16T12:59:48.838Z,42.70
2023-02-16T13:02:24.503Z,42.90
2023-02-16T13:05:00.780Z,42.40
2023-02-16T13:07:33.749Z,42.90
2023-02-16T13:10:08.585Z,43.50
2023-02-16T13:12:41.367Z,43.90
2023-02-16T13:15:16.294Z,44.20
2023-02-16T13:17:50.865Z,44.20
2023-02-16T13:20:23.066Z,44.50
2023-02-16T13:23:14.158Z,44.90
2023-02-16T13:26:01.109Z,45.40
2023-02-16T13:29:03.133Z,45.90
2023-02-16T13:31:47.346Z,45.80
2023-02-16T13:34:43.941Z,45.90
2023-02-16T13:37:31.778Z,46.00
2023-02-16T13:40:35.734Z,46.10
2023-02-16T13:43:30.539Z,46.30
2023-02-16T13:46:01.512Z,46.50
2023-02-16T13:48:36.763Z,46.70
2023-02-16T13:51:13.841Z,47.40
2023-02-16T13:53:44.989Z,48.10
2023-02-16T13:56:22.510Z,48.50
2023-02-16T13:58:53.123Z,49.20
2023-02-16T14:01:41.880Z,49.60
2023-02-16T14:04:55.359Z,50.30
2023-02-16T14:07:38.385Z,50.90
2023-02-16T14:10:13.720Z,51.30
2023-02-16T14:12:43.114Z,51.60
2023-02-16T14:15:20.460Z,51.70
2023-02-16T14:17:49.601Z,52.20
2023-02-16T14:20:31.164Z,52.30
2023-02-16T14:23:01.941Z,52.90
2023-02-16T14:25:37.701Z,53.00
2023-02-16T14:28:23.149Z,53.30
2023-02-16T14:30:55.769Z,53.40
2023-02-16T14:33:33.121Z,53.60
2023-02-16T14:36:14.322Z,53.90
2023-02-16T14:38:48.354Z,54.10
2023-02-16T14:41:28.157Z,54.20
2023-02-16T14:44:24.770Z,54.60
2023-02-16T14:47:04.929Z,54.80
2023-02-16T14:50:13.176Z,55.00
2023-02-16T14:53:17.226Z,55.30
2023-02-16T14:56:08.821Z,55.50
2023-02-16T14:58:45.923Z,55.60
2023-02-16T15:01:17.794Z,55.70
2023-02-16T15:03:48.811Z,55.80
2023-02-16T15:06:31.718Z,55.90
2023-02-16T15:09:06.385Z,56.20
2023-02-16T15:12:00.214Z,56.10
2023-02-16T15:14:32.589Z,56.20
2023-02-16T15:17:01.920Z,56.30
2023-02-16T15:19:32.711Z,56.30
2023-02-16T15:22:10.307Z,56.60
2023-02-16T15:24:39.676Z,56.80
2023-02-16T15:27:21.876Z,56.70
2023-02-16T15:30:05.604Z,57.00
2023-02-16T15:32:34.875Z,57.30
2023-02-16T15:35:13.456Z,57.10
2023-02-16T15:37:42.523Z,57.40
2023-02-16T15:40:26.529Z,57.30
2023-02-16T15:43:04.517Z,57.50
2023-02-16T15:45:37.802Z,57.60
2023-02-16T15:48:22.105Z,57.70
2023-02-16T15:50:53.445Z,58.00
2023-02-16T15:53:34.811Z,58.00
2023-02-16T15:56:07.568Z,58.10
2023-02-16T15:58:37.966Z,58.20
2023-02-16T16:01:07.325Z,58.40
2023-02-16T16:03:36.383Z,58.30
2023-02-16T16:06:07.318Z,58.40
2023-02-16T16:08:37.157Z,58.60
2023-02-16T16:11:06.736Z,58.60
2023-02-16T16:13:39.042Z,58.60
2023-02-16T16:16:09.925Z,58.80
2023-02-16T16:18:43.222Z,58.80
2023-02-16T16:21:23.962Z,59.00
2023-02-16T16:23:56.640Z,59.20
2023-02-16T16:26:26.350Z,59.10
2023-02-16T16:28:56.924Z,59.10
2023-02-16T16:31:41.670Z,59.30
2023-02-16T16:34:30.932Z,59.50
2023-02-16T16:37:02.524Z,59.40
2023-02-16T16:39:32.699Z,59.50
2023-02-16T16:42:15.669Z,59.60
2023-02-16T16:44:54.529Z,59.90
2023-02-16T16:47:27.266Z,59.80
2023-02-16T16:50:00.200Z,60.00
2023-02-16T16:52:35.901Z,60.00
2023-02-16T16:55:23.176Z,60.20
2023-02-16T16:57:53.972Z,60.50
2023-02-16T17:00:27.296Z,60.50
2023-02-16T17:02:56.539Z,60.50
2023-02-16T17:05:25.909Z,60.60
2023-02-16T17:07:54.916Z,60.70
2023-02-16T17:10:24.515Z,60.90
2023-02-16T17:12:57.461Z,61.00
2023-02-16T17:15:41.154Z,61.20
2023-02-16T17:18:15.806Z,61.40
2023-02-16T17:20:45.431Z,61.40
2023-02-16T17:23:17.098Z,61.40
2023-02-16T17:25:47.589Z,61.30
2023-02-16T17:28:19.658Z,61.40
2023-02-16T17:30:50.623Z,61.60
2023-02-16T17:33:20.106Z,61.60
2023-02-16T17:35:49.209Z,61.60
2023-02-16T17:38:21.606Z,61.70
2023-02-16T17:40:52.556Z,61.80
2023-02-16T17:43:23.269Z,61.80
2023-02-16T17:45:56.387Z,62.00
2023-02-16T17:48:29.219Z,62.10
2023-02-16T17:50:59.414Z,62.30
2023-02-16T17:53:29.902Z,62.30
2023-02-16T17:55:59.323Z,62.30
2023-02-16T17:58:28.269Z,62.30
2023-02-16T18:00:58.768Z,62.50
2023-02-16T18:03:30.894Z,62.60
2023-02-16T18:06:00.038Z,62.70
2023-02-16T18:08:29.094Z,62.70
2023-02-16T18:11:02.128Z,62.80
2023-02-16T18:13:31.696Z,63.00
2023-02-16T18:16:03.809Z,63.00
2023-02-16T18:18:34.813Z,63.10
2023-02-16T18:21:04.403Z,63.20
2023-02-16T18:23:33.635Z,63.20
2023-02-16T18:26:05.562Z,63.30
2023-02-16T18:28:35.948Z,63.40
2023-02-16T18:31:08.419Z,63.40
2023-02-16T18:33:37.500Z,63.50
2023-02-16T18:36:07.615Z,63.40
2023-02-16T18:38:36.845Z,63.40
2023-02-16T18:41:06.136Z,63.40
2023-02-16T18:43:35.752Z,63.60
2023-02-16T18:46:08.294Z,63.60
2023-02-16T18:48:37.559Z,63.70
2023-02-16T18:51:07.397Z,63.60
2023-02-16T18:53:38.247Z,63.50
2023-02-16T18:56:08.581Z,63.70
2023-02-16T18:58:38.196Z,63.90
2023-02-16T19:01:15.195Z,63.80
2023-02-16T19:03:44.170Z,63.90
2023-02-16T19:06:13.173Z,63.70
2023-02-16T19:08:43.036Z,63.90
2023-02-16T19:11:19.469Z,63.80
2023-02-16T19:13:48.602Z,64.20
2023-02-16T19:16:18.988Z,64.00
2023-02-16T19:18:47.981Z,64.10
2023-02-16T19:21:16.984Z,64.10
2023-02-16T19:23:46.805Z,64.20
2023-02-16T19:26:18.842Z,64.30
2023-02-16T19:28:48.242Z,64.40
2023-02-16T19:31:20.670Z,64.40
2023-02-16T19:33:49.977Z,64.40
2023-02-16T19:36:20.144Z,64.40
2023-02-16T19:38:49.559Z,64.50
2023-02-16T19:41:21.450Z,64.50
2023-02-16T19:43:50.945Z,64.70
2023-02-16T19:46:21.601Z,64.40
2023-02-16T19:48:50.708Z,64.60
2023-02-16T19:51:19.841Z,64.40
2023-02-16T19:53:49.286Z,64.50
2023-02-16T19:56:21.733Z,64.70
2023-02-16T19:58:52.013Z,64.70
2023-02-16T20:01:24.219Z,64.90
2023-02-16T20:03:54.353Z,64.80
2023-02-16T20:06:26.262Z,65.00
2023-02-16T20:08:57.674Z,65.10
2023-02-16T20:11:28.821Z,65.20
2023-02-16T20:13:58.273Z,65.20
2023-02-16T20:16:29.696Z,65.20
2023-02-16T20:18:59.516Z,65.30
2023-02-16T20:21:29.731Z,65.20
2023-02-16T20:24:00.419Z,65.30
2023-02-16T20:26:34.020Z,65.20
2023-02-16T20:29:03.885Z,65.30
2023-02-16T20:31:36.366Z,65.30
2023-02-16T20:34:06.723Z,65.30
2023-02-16T20:36:35.848Z,65.30
2023-02-16T20:39:06.361Z,65.30
2023-02-16T20:41:35.835Z,65.30
2023-02-16T20:44:05.565Z,65.30
2023-02-16T20:46:36.200Z,65.30
2023-02-16T20:49:05.356Z,65.30
2023-02-16T20:51:35.062Z,65.40
2023-02-16T20:54:04.766Z,65.40
2023-02-16T20:56:33.700Z,65.50
2023-02-16T20:59:02.882Z,65.50
2023-02-16T21:01:37.193Z,65.60
2023-02-16T21:04:09.283Z,65.70
2023-02-16T21:06:38.320Z,65.70
2023-02-16T21:09:09.113Z,65.70
2023-02-16T21:11:39.440Z,65.90
2023-02-16T21:14:09.797Z,65.80
2023-02-16T21:16:40.891Z,65.80
2023-02-16T21:19:22.239Z,66.00
2023-02-16T21:21:52.092Z,66.00
2023-02-16T21:24:21.369Z,66.10
2023-02-16T21:26:50.311Z,66.10
2023-02-16T21:29:19.248Z,66.10
2023-02-16T21:31:48.225Z,66.30
2023-02-16T21:34:18.404Z,66.40
2023-02-16T21:36:47.347Z,66.40
2023-02-16T21:39:16.621Z,66.40
2023-02-16T21:41:44.605Z,66.40
2023-02-16T21:44:15.635Z,66.40
2023-02-16T21:46:45.855Z,66.40
2023-02-16T21:49:15.817Z,66.40
2023-02-16T21:51:47.454Z,66.40
2023-02-16T21:54:39.034Z,66.40
2023-02-16T21:57:07.026Z,66.40
2023-02-16T21:59:36.370Z,66.30
2023-02-16T22:02:05.175Z,66.30
2023-02-16T22:04:34.170Z,66.40
2023-02-16T22:07:04.342Z,66.40
2023-02-16T22:09:33.152Z,66.40
2023-02-16T22:12:01.962Z,66.40
2023-02-16T22:14:31.880Z,66.40
2023-02-16T22:17:02.027Z,66.50
2023-02-16T22:19:30.979Z,66.60
2023-02-16T22:21:59.904Z,66.40
2023-02-16T22:24:30.180Z,66.40
2023-02-16T22:26:59.087Z,66.50
2023-02-16T22:29:28.230Z,66.50
2023-02-16T22:31:57.336Z,66.50
2023-02-16T22:34:26.385Z,66.50
2023-02-16T22:36:55.371Z,66.50
2023-02-16T22:39:24.461Z,66.50
2023-02-16T22:41:54.602Z,66.50
2023-02-16T22:44:23.869Z,66.40
2023-02-16T22:46:54.523Z,66.40
2023-02-16T22:49:23.652Z,66.50
2023-02-16T22:51:52.920Z,66.50
2023-02-16T22:54:23.247Z,66.40
2023-02-16T22:56:53.728Z,66.50
2023-02-16T22:59:22.827Z,66.70
2023-02-16T23:01:52.015Z,66.70
2023-02-16T23:04:21.154Z,66.70
2023-02-16T23:06:50.185Z,66.70
2023-02-16T23:09:21.388Z,66.70
2023-02-16T23:11:51.046Z,66.80
2023-02-16T23:14:21.456Z,66.60
2023-02-16T23:16:52.158Z,66.70
2023-02-16T23:19:23.164Z,66.70
2023-02-16T23:21:52.822Z,66.70
2023-02-16T23:24:23.518Z,66.70
2023-02-16T23:26:53.083Z,66.70
2023-02-16T23:29:23.433Z,66.70
2023-02-16T23:31:53.194Z,66.70
2023-02-16T23:34:22.336Z,66.80
2023-02-16T23:36:51.158Z,66.80
2023-02-16T23:39:20.033Z,66.80
2023-02-16T23:41:48.840Z,66.80
2023-02-16T23:44:17.644Z,66.70
2023-02-16T23:46:47.995Z,66.80
2023-02-16T23:49:17.001Z,66.80
2023-02-16T23:51:45.957Z,66.80
2023-02-16T23:54:14.971Z,66.80
2023-02-16T23:56:43.841Z,66.80
2023-02-16T23:59:12.889Z,66.80
